sensor_id;sensor_type;location;lat;lon;timestamp;temperature;humidity
52459;DHT22;38372;52.902;6.024;2023-04-08T00:01:58;3.90;99.90
52459;DHT22;38372;52.902;6.024;2023-04-08T00:04:24;3.90;99.90
52459;DHT22;38372;52.902;6.024;2023-04-08T00:06:50;3.90;99.90
52459;DHT22;38372;52.902;6.024;2023-04-08T00:09:16;3.90;99.90
52459;DHT22;38372;52.902;6.024;2023-04-08T00:11:41;3.90;99.90
52459;DHT22;38372;52.902;6.024;2023-04-08T00:14:07;3.90;99.90
52459;DHT22;38372;52.902;6.024;2023-04-08T00:16:33;3.80;99.90
52459;DHT22;38372;52.902;6.024;2023-04-08T00:18:59;3.90;99.90
52459;DHT22;38372;52.902;6.024;2023-04-08T00:21:25;3.90;99.90
52459;DHT22;38372;52.902;6.024;2023-04-08T00:23:51;3.90;99.90
52459;DHT22;38372;52.902;6.024;2023-04-08T00:26:17;3.80;99.90
52459;DHT22;38372;52.902;6.024;2023-04-08T00:28:43;3.80;99.90
52459;DHT22;38372;52.902;6.024;2023-04-08T00:31:09;3.80;99.90
52459;DHT22;38372;52.902;6.024;2023-04-08T00:33:35;3.80;99.90
52459;DHT22;38372;52.902;6.024;2023-04-08T00:36:01;3.80;99.90
52459;DHT22;38372;52.902;6.024;2023-04-08T00:38:27;3.80;99.90
52459;DHT22;38372;52.902;6.024;2023-04-08T00:40:53;3.70;99.90
52459;DHT22;38372;52.902;6.024;2023-04-08T00:43:19;3.60;99.90
52459;DHT22;38372;52.902;6.024;2023-04-08T00:45:48;3.60;99.90
52459;DHT22;38372;52.902;6.024;2023-04-08T00:48:14;3.60;99.90
52459;DHT22;38372;52.902;6.024;2023-04-08T00:50:42;3.50;99.90
52459;DHT22;38372;52.902;6.024;2023-04-08T00:53:08;3.50;99.90
52459;DHT22;38372;52.902;6.024;2023-04-08T00:55:35;3.40;99.90
52459;DHT22;38372;52.902;6.024;2023-04-08T00:58:00;3.30;99.90
52459;DHT22;38372;52.902;6.024;2023-04-08T01:00:28;3.20;99.90
52459;DHT22;38372;52.902;6.024;2023-04-08T01:03:15;3.20;99.90
52459;DHT22;38372;52.902;6.024;2023-04-08T01:08:42;3.10;99.90
52459;DHT22;38372;52.902;6.024;2023-04-08T01:11:11;3.00;99.90
52459;DHT22;38372;52.902;6.024;2023-04-08T01:13:40;2.90;99.90
52459;DHT22;38372;52.902;6.024;2023-04-08T01:16:12;2.90;99.90
52459;DHT22;38372;52.902;6.024;2023-04-08T01:18:40;2.80;99.90
52459;DHT22;38372;52.902;6.024;2023-04-08T01:21:06;2.80;99.90
52459;DHT22;38372;52.902;6.024;2023-04-08T01:23:45;2.80;99.90
52459;DHT22;38372;52.902;6.024;2023-04-08T01:26:22;2.70;99.90
52459;DHT22;38372;52.902;6.024;2023-04-08T01:28:51;2.70;99.90
52459;DHT22;38372;52.902;6.024;2023-04-08T01:31:18;2.70;99.90
52459;DHT22;38372;52.902;6.024;2023-04-08T01:33:45;2.70;99.90
52459;DHT22;38372;52.902;6.024;2023-04-08T01:36:12;2.70;99.90
52459;DHT22;38372;52.902;6.024;2023-04-08T01:38:39;2.70;99.90
52459;DHT22;38372;52.902;6.024;2023-04-08T01:41:05;2.60;99.90
52459;DHT22;38372;52.902;6.024;2023-04-08T01:43:34;2.60;99.90
52459;DHT22;38372;52.902;6.024;2023-04-08T01:46:01;2.60;99.90
52459;DHT22;38372;52.902;6.024;2023-04-08T01:48:27;2.60;99.90
52459;DHT22;38372;52.902;6.024;2023-04-08T01:50:54;2.60;99.90
52459;DHT22;38372;52.902;6.024;2023-04-08T01:53:21;2.50;99.90
52459;DHT22;38372;52.902;6.024;2023-04-08T01:55:52;2.50;99.90
52459;DHT22;38372;52.902;6.024;2023-04-08T01:58:21;2.40;99.90
52459;DHT22;38372;52.902;6.024;2023-04-08T02:00:47;2.40;99.90
52459;DHT22;38372;52.902;6.024;2023-04-08T02:03:16;2.40;99.90
52459;DHT22;38372;52.902;6.024;2023-04-08T02:05:43;2.30;99.90
52459;DHT22;38372;52.902;6.024;2023-04-08T02:08:09;2.30;99.90
52459;DHT22;38372;52.902;6.024;2023-04-08T02:10:34;2.20;99.90
52459;DHT22;38372;52.902;6.024;2023-04-08T02:13:01;2.20;99.90
52459;DHT22;38372;52.902;6.024;2023-04-08T02:15:28;2.10;99.90
52459;DHT22;38372;52.902;6.024;2023-04-08T02:18:10;2.10;99.90
52459;DHT22;38372;52.902;6.024;2023-04-08T02:20:43;2.10;99.90
52459;DHT22;38372;52.902;6.024;2023-04-08T02:23:21;2.10;99.90
52459;DHT22;38372;52.902;6.024;2023-04-08T02:25:49;2.10;99.90
52459;DHT22;38372;52.902;6.024;2023-04-08T02:28:17;2.10;99.90
52459;DHT22;38372;52.902;6.024;2023-04-08T02:30:48;2.00;99.90
52459;DHT22;38372;52.902;6.024;2023-04-08T02:33:18;2.00;99.90
52459;DHT22;38372;52.902;6.024;2023-04-08T02:35:44;2.00;99.90
52459;DHT22;38372;52.902;6.024;2023-04-08T02:38:11;2.00;99.90
52459;DHT22;38372;52.902;6.024;2023-04-08T02:40:37;2.00;99.90
52459;DHT22;38372;52.902;6.024;2023-04-08T02:43:03;2.00;99.90
52459;DHT22;38372;52.902;6.024;2023-04-08T02:45:37;2.00;99.90
52459;DHT22;38372;52.902;6.024;2023-04-08T02:48:03;2.00;99.90
52459;DHT22;38372;52.902;6.024;2023-04-08T02:50:30;2.00;99.90
52459;DHT22;38372;52.902;6.024;2023-04-08T02:52:56;2.00;99.90
52459;DHT22;38372;52.902;6.024;2023-04-08T02:55:22;2.00;99.90
52459;DHT22;38372;52.902;6.024;2023-04-08T02:57:48;2.00;99.90
52459;DHT22;38372;52.902;6.024;2023-04-08T03:00:14;2.00;99.90
52459;DHT22;38372;52.902;6.024;2023-04-08T03:02:40;2.00;99.90
52459;DHT22;38372;52.902;6.024;2023-04-08T03:05:07;2.00;99.90
52459;DHT22;38372;52.902;6.024;2023-04-08T03:07:33;2.00;99.90
52459;DHT22;38372;52.902;6.024;2023-04-08T03:09:58;1.90;99.90
52459;DHT22;38372;52.902;6.024;2023-04-08T03:12:24;2.00;99.90
52459;DHT22;38372;52.902;6.024;2023-04-08T03:14:52;1.90;99.90
52459;DHT22;38372;52.902;6.024;2023-04-08T03:17:17;2.00;99.90
52459;DHT22;38372;52.902;6.024;2023-04-08T03:19:43;1.90;99.90
52459;DHT22;38372;52.902;6.024;2023-04-08T03:22:09;1.90;99.90
52459;DHT22;38372;52.902;6.024;2023-04-08T03:24:36;1.80;99.90
52459;DHT22;38372;52.902;6.024;2023-04-08T03:27:02;1.80;99.90
52459;DHT22;38372;52.902;6.024;2023-04-08T03:29:28;1.70;99.90
52459;DHT22;38372;52.902;6.024;2023-04-08T03:31:54;1.70;99.90
52459;DHT22;38372;52.902;6.024;2023-04-08T03:34:19;1.70;99.90
52459;DHT22;38372;52.902;6.024;2023-04-08T03:36:45;1.70;99.90
52459;DHT22;38372;52.902;6.024;2023-04-08T03:39:11;1.60;99.90
52459;DHT22;38372;52.902;6.024;2023-04-08T03:41:37;1.60;99.90
52459;DHT22;38372;52.902;6.024;2023-04-08T03:44:03;1.60;99.90
52459;DHT22;38372;52.902;6.024;2023-04-08T03:46:28;1.60;99.90
52459;DHT22;38372;52.902;6.024;2023-04-08T03:48:54;1.60;99.90
52459;DHT22;38372;52.902;6.024;2023-04-08T03:51:20;1.50;99.90
52459;DHT22;38372;52.902;6.024;2023-04-08T03:53:46;1.50;99.90
52459;DHT22;38372;52.902;6.024;2023-04-08T03:56:14;1.50;99.90
52459;DHT22;38372;52.902;6.024;2023-04-08T03:58:39;1.50;99.90
52459;DHT22;38372;52.902;6.024;2023-04-08T04:01:05;1.50;99.90
52459;DHT22;38372;52.902;6.024;2023-04-08T04:03:31;1.50;99.90
52459;DHT22;38372;52.902;6.024;2023-04-08T04:05:57;1.50;99.90
52459;DHT22;38372;52.902;6.024;2023-04-08T04:08:22;1.40;99.90
52459;DHT22;38372;52.902;6.024;2023-04-08T04:10:48;1.30;99.90
52459;DHT22;38372;52.902;6.024;2023-04-08T04:13:14;1.40;99.90
52459;DHT22;38372;52.902;6.024;2023-04-08T04:15:40;1.30;99.90
52459;DHT22;38372;52.902;6.024;2023-04-08T04:18:06;1.30;99.90
52459;DHT22;38372;52.902;6.024;2023-04-08T04:20:32;1.30;99.90
52459;DHT22;38372;52.902;6.024;2023-04-08T04:22:58;1.30;99.90
52459;DHT22;38372;52.902;6.024;2023-04-08T04:25:24;1.30;99.90
52459;DHT22;38372;52.902;6.024;2023-04-08T04:27:49;1.30;99.90
52459;DHT22;38372;52.902;6.024;2023-04-08T04:30:15;1.30;99.90
52459;DHT22;38372;52.902;6.024;2023-04-08T04:32:42;1.20;99.90
52459;DHT22;38372;52.902;6.024;2023-04-08T04:35:11;1.30;99.90
52459;DHT22;38372;52.902;6.024;2023-04-08T04:37:37;1.30;99.90
52459;DHT22;38372;52.902;6.024;2023-04-08T04:40:04;1.30;99.90
52459;DHT22;38372;52.902;6.024;2023-04-08T04:42:30;1.30;99.90
52459;DHT22;38372;52.902;6.024;2023-04-08T04:44:56;1.30;99.90
52459;DHT22;38372;52.902;6.024;2023-04-08T04:47:22;1.30;99.90
52459;DHT22;38372;52.902;6.024;2023-04-08T04:49:48;1.30;99.90
52459;DHT22;38372;52.902;6.024;2023-04-08T04:52:13;1.30;99.90
52459;DHT22;38372;52.902;6.024;2023-04-08T04:54:39;1.30;99.90
52459;DHT22;38372;52.902;6.024;2023-04-08T04:57:05;1.30;99.90
52459;DHT22;38372;52.902;6.024;2023-04-08T04:59:31;1.30;99.90
52459;DHT22;38372;52.902;6.024;2023-04-08T05:01:57;1.30;99.90
52459;DHT22;38372;52.902;6.024;2023-04-08T05:04:23;1.30;99.90
52459;DHT22;38372;52.902;6.024;2023-04-08T05:06:49;1.30;99.90
52459;DHT22;38372;52.902;6.024;2023-04-08T05:09:15;1.30;99.90
52459;DHT22;38372;52.902;6.024;2023-04-08T05:11:41;1.30;99.90
52459;DHT22;38372;52.902;6.024;2023-04-08T05:14:07;1.20;99.90
52459;DHT22;38372;52.902;6.024;2023-04-08T05:16:33;1.20;99.90
52459;DHT22;38372;52.902;6.024;2023-04-08T05:18:59;1.20;99.90
52459;DHT22;38372;52.902;6.024;2023-04-08T05:21:24;1.20;99.90
52459;DHT22;38372;52.902;6.024;2023-04-08T05:23:52;1.20;99.90
52459;DHT22;38372;52.902;6.024;2023-04-08T05:26:19;1.20;99.90
52459;DHT22;38372;52.902;6.024;2023-04-08T05:28:47;1.20;99.90
52459;DHT22;38372;52.902;6.024;2023-04-08T05:31:17;1.10;99.90
52459;DHT22;38372;52.902;6.024;2023-04-08T05:33:43;1.10;99.90
52459;DHT22;38372;52.902;6.024;2023-04-08T05:36:10;1.20;99.90
52459;DHT22;38372;52.902;6.024;2023-04-08T05:38:36;1.30;99.90
52459;DHT22;38372;52.902;6.024;2023-04-08T05:41:02;1.30;99.90
52459;DHT22;38372;52.902;6.024;2023-04-08T05:43:28;1.30;99.90
52459;DHT22;38372;52.902;6.024;2023-04-08T05:45:54;1.40;99.90
52459;DHT22;38372;52.902;6.024;2023-04-08T05:48:20;1.40;99.90
52459;DHT22;38372;52.902;6.024;2023-04-08T05:50:46;1.40;99.90
52459;DHT22;38372;52.902;6.024;2023-04-08T05:53:13;1.40;99.90
52459;DHT22;38372;52.902;6.024;2023-04-08T05:55:39;1.50;99.90
52459;DHT22;38372;52.902;6.024;2023-04-08T05:58:06;1.50;99.90
52459;DHT22;38372;52.902;6.024;2023-04-08T06:00:31;1.60;99.90
52459;DHT22;38372;52.902;6.024;2023-04-08T06:02:58;1.70;99.90
52459;DHT22;38372;52.902;6.024;2023-04-08T06:05:23;1.80;99.90
52459;DHT22;38372;52.902;6.024;2023-04-08T06:07:49;1.90;99.90
52459;DHT22;38372;52.902;6.024;2023-04-08T06:10:15;2.00;99.90
52459;DHT22;38372;52.902;6.024;2023-04-08T06:12:41;2.00;99.90
52459;DHT22;38372;52.902;6.024;2023-04-08T06:15:08;2.10;99.90
52459;DHT22;38372;52.902;6.024;2023-04-08T06:17:37;2.20;99.90
52459;DHT22;38372;52.902;6.024;2023-04-08T06:20:04;2.30;99.90
52459;DHT22;38372;52.902;6.024;2023-04-08T06:22:31;2.40;99.90
52459;DHT22;38372;52.902;6.024;2023-04-08T06:24:56;2.50;99.90
52459;DHT22;38372;52.902;6.024;2023-04-08T06:27:22;2.70;99.90
52459;DHT22;38372;52.902;6.024;2023-04-08T06:29:48;2.80;99.90
52459;DHT22;38372;52.902;6.024;2023-04-08T06:32:14;3.00;99.90
52459;DHT22;38372;52.902;6.024;2023-04-08T06:34:40;3.40;99.90
52459;DHT22;38372;52.902;6.024;2023-04-08T06:37:06;4.00;99.90
52459;DHT22;38372;52.902;6.024;2023-04-08T06:39:32;4.60;99.90
52459;DHT22;38372;52.902;6.024;2023-04-08T06:41:58;5.20;99.90
52459;DHT22;38372;52.902;6.024;2023-04-08T06:44:24;5.70;99.90
52459;DHT22;38372;52.902;6.024;2023-04-08T06:46:50;6.10;99.90
52459;DHT22;38372;52.902;6.024;2023-04-08T06:49:15;6.30;99.90
52459;DHT22;38372;52.902;6.024;2023-04-08T06:51:41;6.50;99.90
52459;DHT22;38372;52.902;6.024;2023-04-08T06:54:07;6.70;99.90
52459;DHT22;38372;52.902;6.024;2023-04-08T06:56:35;6.70;99.90
52459;DHT22;38372;52.902;6.024;2023-04-08T06:59:01;6.50;99.90
52459;DHT22;38372;52.902;6.024;2023-04-08T07:01:29;6.30;99.90
52459;DHT22;38372;52.902;6.024;2023-04-08T07:03:55;6.10;99.90
52459;DHT22;38372;52.902;6.024;2023-04-08T07:06:22;5.90;99.90
52459;DHT22;38372;52.902;6.024;2023-04-08T07:08:47;5.80;99.90
52459;DHT22;38372;52.902;6.024;2023-04-08T07:11:13;5.70;99.90
52459;DHT22;38372;52.902;6.024;2023-04-08T07:13:39;5.70;99.90
52459;DHT22;38372;52.902;6.024;2023-04-08T07:16:05;5.80;99.90
52459;DHT22;38372;52.902;6.024;2023-04-08T07:18:31;5.90;99.90
52459;DHT22;38372;52.902;6.024;2023-04-08T07:20:57;6.00;99.90
52459;DHT22;38372;52.902;6.024;2023-04-08T07:23:25;6.10;99.90
52459;DHT22;38372;52.902;6.024;2023-04-08T07:25:51;6.20;99.90
52459;DHT22;38372;52.902;6.024;2023-04-08T07:28:17;6.40;99.90
52459;DHT22;38372;52.902;6.024;2023-04-08T07:30:42;6.70;99.90
52459;DHT22;38372;52.902;6.024;2023-04-08T07:33:08;7.00;99.90
52459;DHT22;38372;52.902;6.024;2023-04-08T07:35:38;7.40;99.90
52459;DHT22;38372;52.902;6.024;2023-04-08T07:38:04;7.70;99.90
52459;DHT22;38372;52.902;6.024;2023-04-08T07:40:33;7.80;99.90
52459;DHT22;38372;52.902;6.024;2023-04-08T07:42:59;7.90;99.90
52459;DHT22;38372;52.902;6.024;2023-04-08T07:45:25;7.80;99.90
52459;DHT22;38372;52.902;6.024;2023-04-08T07:47:50;7.80;99.90
52459;DHT22;38372;52.902;6.024;2023-04-08T07:50:16;7.70;99.90
52459;DHT22;38372;52.902;6.024;2023-04-08T07:52:42;7.70;99.90
52459;DHT22;38372;52.902;6.024;2023-04-08T07:55:08;7.70;99.90
52459;DHT22;38372;52.902;6.024;2023-04-08T07:57:34;7.70;99.90
52459;DHT22;38372;52.902;6.024;2023-04-08T08:00:00;7.70;99.90
52459;DHT22;38372;52.902;6.024;2023-04-08T08:02:26;7.60;99.90
52459;DHT22;38372;52.902;6.024;2023-04-08T08:04:51;7.70;99.90
52459;DHT22;38372;52.902;6.024;2023-04-08T08:07:17;7.70;99.90
52459;DHT22;38372;52.902;6.024;2023-04-08T08:09:43;7.70;99.90
52459;DHT22;38372;52.902;6.024;2023-04-08T08:12:09;7.60;99.90
52459;DHT22;38372;52.902;6.024;2023-04-08T08:14:35;7.60;99.90
52459;DHT22;38372;52.902;6.024;2023-04-08T08:17:02;7.70;99.90
52459;DHT22;38372;52.902;6.024;2023-04-08T08:19:27;7.80;99.90
52459;DHT22;38372;52.902;6.024;2023-04-08T08:21:53;7.90;99.90
52459;DHT22;38372;52.902;6.024;2023-04-08T08:24:19;7.90;99.90
52459;DHT22;38372;52.902;6.024;2023-04-08T08:26:45;8.00;99.90
52459;DHT22;38372;52.902;6.024;2023-04-08T08:29:11;8.10;99.90
52459;DHT22;38372;52.902;6.024;2023-04-08T08:31:37;8.10;99.90
52459;DHT22;38372;52.902;6.024;2023-04-08T08:34:03;8.20;99.90
52459;DHT22;38372;52.902;6.024;2023-04-08T08:36:28;8.30;99.90
52459;DHT22;38372;52.902;6.024;2023-04-08T08:38:55;8.40;99.90
52459;DHT22;38372;52.902;6.024;2023-04-08T08:41:21;8.70;99.90
52459;DHT22;38372;52.902;6.024;2023-04-08T08:43:48;9.10;99.90
52459;DHT22;38372;52.902;6.024;2023-04-08T08:46:16;9.90;99.90
52459;DHT22;38372;52.902;6.024;2023-04-08T08:48:43;10.60;99.90
52459;DHT22;38372;52.902;6.024;2023-04-08T08:51:09;10.80;99.90
52459;DHT22;38372;52.902;6.024;2023-04-08T08:53:36;10.70;99.90
52459;DHT22;38372;52.902;6.024;2023-04-08T08:56:02;10.50;99.90
52459;DHT22;38372;52.902;6.024;2023-04-08T08:58:28;10.40;99.90
52459;DHT22;38372;52.902;6.024;2023-04-08T09:00:54;10.60;99.90
52459;DHT22;38372;52.902;6.024;2023-04-08T09:03:27;11.40;99.90
52459;DHT22;38372;52.902;6.024;2023-04-08T09:05:58;12.10;99.90
52459;DHT22;38372;52.902;6.024;2023-04-08T09:08:35;12.10;99.90
52459;DHT22;38372;52.902;6.024;2023-04-08T09:11:18;12.00;99.90
52459;DHT22;38372;52.902;6.024;2023-04-08T09:13:45;12.00;99.90
52459;DHT22;38372;52.902;6.024;2023-04-08T09:16:12;12.30;99.90
52459;DHT22;38372;52.902;6.024;2023-04-08T09:18:39;12.90;99.90
52459;DHT22;38372;52.902;6.024;2023-04-08T09:21:07;13.40;99.90
52459;DHT22;38372;52.902;6.024;2023-04-08T09:23:53;13.60;99.90
52459;DHT22;38372;52.902;6.024;2023-04-08T09:26:21;14.00;99.90
52459;DHT22;38372;52.902;6.024;2023-04-08T09:29:02;14.50;99.90
52459;DHT22;38372;52.902;6.024;2023-04-08T09:31:30;14.80;99.90
52459;DHT22;38372;52.902;6.024;2023-04-08T09:33:58;15.20;99.90
52459;DHT22;38372;52.902;6.024;2023-04-08T09:36:24;15.60;99.90
52459;DHT22;38372;52.902;6.024;2023-04-08T09:38:53;15.70;99.90
52459;DHT22;38372;52.902;6.024;2023-04-08T09:41:20;16.00;99.90
52459;DHT22;38372;52.902;6.024;2023-04-08T09:43:55;16.10;99.90
52459;DHT22;38372;52.902;6.024;2023-04-08T09:49:12;16.30;99.90
52459;DHT22;38372;52.902;6.024;2023-04-08T09:54:20;16.50;99.90
52459;DHT22;38372;52.902;6.024;2023-04-08T09:56:53;16.70;99.90
52459;DHT22;38372;52.902;6.024;2023-04-08T09:59:24;16.90;99.90
52459;DHT22;38372;52.902;6.024;2023-04-08T10:01:52;17.20;99.90
52459;DHT22;38372;52.902;6.024;2023-04-08T10:04:20;17.40;99.90
52459;DHT22;38372;52.902;6.024;2023-04-08T10:06:53;17.60;99.90
52459;DHT22;38372;52.902;6.024;2023-04-08T10:09:20;17.80;99.90
52459;DHT22;38372;52.902;6.024;2023-04-08T10:11:47;18.00;99.90
52459;DHT22;38372;52.902;6.024;2023-04-08T10:14:13;18.00;99.90
52459;DHT22;38372;52.902;6.024;2023-04-08T10:16:39;18.00;99.90
52459;DHT22;38372;52.902;6.024;2023-04-08T10:19:35;18.00;99.90
52459;DHT22;38372;52.902;6.024;2023-04-08T10:22:01;18.10;99.90
52459;DHT22;38372;52.902;6.024;2023-04-08T10:24:36;18.40;99.90
52459;DHT22;38372;52.902;6.024;2023-04-08T10:27:44;18.50;99.90
52459;DHT22;38372;52.902;6.024;2023-04-08T10:33:34;18.50;99.90
52459;DHT22;38372;52.902;6.024;2023-04-08T10:36:15;18.50;99.90
52459;DHT22;38372;52.902;6.024;2023-04-08T10:38:53;18.70;99.90
52459;DHT22;38372;52.902;6.024;2023-04-08T10:41:28;18.60;99.90
52459;DHT22;38372;52.902;6.024;2023-04-08T10:44:17;18.50;99.90
52459;DHT22;38372;52.902;6.024;2023-04-08T10:47:04;18.20;99.90
52459;DHT22;38372;52.902;6.024;2023-04-08T10:49:49;18.20;99.90
52459;DHT22;38372;52.902;6.024;2023-04-08T10:52:32;18.20;99.90
52459;DHT22;38372;52.902;6.024;2023-04-08T10:55:27;18.20;99.90
52459;DHT22;38372;52.902;6.024;2023-04-08T10:58:11;18.30;99.90
52459;DHT22;38372;52.902;6.024;2023-04-08T11:00:46;18.60;99.90
52459;DHT22;38372;52.902;6.024;2023-04-08T11:03:23;19.00;99.90
52459;DHT22;38372;52.902;6.024;2023-04-08T11:06:08;19.10;99.90
52459;DHT22;38372;52.902;6.024;2023-04-08T11:08:51;18.60;99.90
52459;DHT22;38372;52.902;6.024;2023-04-08T11:11:35;18.00;99.90
52459;DHT22;38372;52.902;6.024;2023-04-08T11:14:16;17.90;99.90
52459;DHT22;38372;52.902;6.024;2023-04-08T11:16:58;18.20;99.90
52459;DHT22;38372;52.902;6.024;2023-04-08T11:19:42;18.30;99.90
52459;DHT22;38372;52.902;6.024;2023-04-08T11:22:28;17.90;99.90
52459;DHT22;38372;52.902;6.024;2023-04-08T11:25:01;17.30;99.90
52459;DHT22;38372;52.902;6.024;2023-04-08T11:27:29;16.70;99.90
52459;DHT22;38372;52.902;6.024;2023-04-08T11:29:58;16.20;99.90
52459;DHT22;38372;52.902;6.024;2023-04-08T11:32:29;15.90;99.90
52459;DHT22;38372;52.902;6.024;2023-04-08T11:35:00;15.40;99.90
52459;DHT22;38372;52.902;6.024;2023-04-08T11:37:41;15.40;99.90
52459;DHT22;38372;52.902;6.024;2023-04-08T11:40:12;15.60;99.90
52459;DHT22;38372;52.902;6.024;2023-04-08T11:42:40;15.50;99.90
52459;DHT22;38372;52.902;6.024;2023-04-08T11:45:17;15.30;99.90
52459;DHT22;38372;52.902;6.024;2023-04-08T11:47:47;15.10;99.90
52459;DHT22;38372;52.902;6.024;2023-04-08T11:50:24;14.90;99.90
52459;DHT22;38372;52.902;6.024;2023-04-08T11:52:52;15.00;99.90
52459;DHT22;38372;52.902;6.024;2023-04-08T11:55:31;15.10;99.90
52459;DHT22;38372;52.902;6.024;2023-04-08T11:58:04;15.70;99.90
52459;DHT22;38372;52.902;6.024;2023-04-08T12:00:35;16.10;99.90
52459;DHT22;38372;52.902;6.024;2023-04-08T12:03:05;16.10;99.90
52459;DHT22;38372;52.902;6.024;2023-04-08T12:05:32;16.00;99.90
52459;DHT22;38372;52.902;6.024;2023-04-08T12:08:01;15.60;99.90
52459;DHT22;38372;52.902;6.024;2023-04-08T12:10:34;15.40;99.90
52459;DHT22;38372;52.902;6.024;2023-04-08T12:13:02;15.30;99.90
52459;DHT22;38372;52.902;6.024;2023-04-08T12:15:35;15.30;99.90
52459;DHT22;38372;52.902;6.024;2023-04-08T12:18:05;15.30;99.90
52459;DHT22;38372;52.902;6.024;2023-04-08T12:20:49;15.40;99.90
52459;DHT22;38372;52.902;6.024;2023-04-08T12:23:20;15.40;99.90
52459;DHT22;38372;52.902;6.024;2023-04-08T12:25:49;15.30;99.90
52459;DHT22;38372;52.902;6.024;2023-04-08T12:28:16;15.30;99.90
52459;DHT22;38372;52.902;6.024;2023-04-08T12:30:43;15.30;99.90
52459;DHT22;38372;52.902;6.024;2023-04-08T12:33:11;15.20;99.90
52459;DHT22;38372;52.902;6.024;2023-04-08T12:35:43;15.10;99.90
52459;DHT22;38372;52.902;6.024;2023-04-08T12:38:16;15.00;99.90
52459;DHT22;38372;52.902;6.024;2023-04-08T12:40:50;14.70;99.90
52459;DHT22;38372;52.902;6.024;2023-04-08T12:43:18;14.40;99.90
52459;DHT22;38372;52.902;6.024;2023-04-08T12:45:47;14.20;99.90
52459;DHT22;38372;52.902;6.024;2023-04-08T12:48:14;14.00;99.90
52459;DHT22;38372;52.902;6.024;2023-04-08T12:50:41;13.80;99.90
52459;DHT22;38372;52.902;6.024;2023-04-08T12:53:10;13.70;99.90
52459;DHT22;38372;52.902;6.024;2023-04-08T12:55:39;13.60;99.90
52459;DHT22;38372;52.902;6.024;2023-04-08T12:58:05;13.60;99.90
52459;DHT22;38372;52.902;6.024;2023-04-08T13:00:35;13.80;99.90
52459;DHT22;38372;52.902;6.024;2023-04-08T13:03:13;14.00;99.90
52459;DHT22;38372;52.902;6.024;2023-04-08T13:05:49;14.40;99.90
52459;DHT22;38372;52.902;6.024;2023-04-08T13:08:18;14.50;99.90
52459;DHT22;38372;52.902;6.024;2023-04-08T13:10:45;14.50;99.90
52459;DHT22;38372;52.902;6.024;2023-04-08T13:13:17;14.40;99.90
52459;DHT22;38372;52.902;6.024;2023-04-08T13:15:48;14.30;99.90
52459;DHT22;38372;52.902;6.024;2023-04-08T13:18:15;14.10;99.90
52459;DHT22;38372;52.902;6.024;2023-04-08T13:20:42;14.00;99.90
52459;DHT22;38372;52.902;6.024;2023-04-08T13:23:14;13.80;99.90
52459;DHT22;38372;52.902;6.024;2023-04-08T13:25:53;13.60;99.90
52459;DHT22;38372;52.902;6.024;2023-04-08T13:28:31;13.40;99.90
52459;DHT22;38372;52.902;6.024;2023-04-08T13:31:09;13.20;99.90
52459;DHT22;38372;52.902;6.024;2023-04-08T13:33:45;13.10;99.90
52459;DHT22;38372;52.902;6.024;2023-04-08T13:36:27;13.00;99.90
52459;DHT22;38372;52.902;6.024;2023-04-08T13:39:18;12.90;99.90
52459;DHT22;38372;52.902;6.024;2023-04-08T13:42:09;12.80;99.90
52459;DHT22;38372;52.902;6.024;2023-04-08T13:44:50;12.80;99.90
52459;DHT22;38372;52.902;6.024;2023-04-08T13:47:38;12.80;99.90
52459;DHT22;38372;52.902;6.024;2023-04-08T13:50:22;12.70;99.90
52459;DHT22;38372;52.902;6.024;2023-04-08T13:53:08;12.70;99.90
52459;DHT22;38372;52.902;6.024;2023-04-08T13:55:53;12.70;99.90
52459;DHT22;38372;52.902;6.024;2023-04-08T13:58:45;12.70;99.90
52459;DHT22;38372;52.902;6.024;2023-04-08T14:01:35;12.70;99.90
52459;DHT22;38372;52.902;6.024;2023-04-08T14:04:17;12.70;99.90
52459;DHT22;38372;52.902;6.024;2023-04-08T14:07:07;12.70;99.90
52459;DHT22;38372;52.902;6.024;2023-04-08T14:09:46;12.70;99.90
52459;DHT22;38372;52.902;6.024;2023-04-08T14:12:36;12.70;99.90
52459;DHT22;38372;52.902;6.024;2023-04-08T14:15:26;12.70;99.90
52459;DHT22;38372;52.902;6.024;2023-04-08T14:18:10;12.60;99.90
52459;DHT22;38372;52.902;6.024;2023-04-08T14:20:48;12.60;99.90
52459;DHT22;38372;52.902;6.024;2023-04-08T14:23:15;12.60;99.90
52459;DHT22;38372;52.902;6.024;2023-04-08T14:25:42;12.60;99.90
52459;DHT22;38372;52.902;6.024;2023-04-08T14:28:08;12.60;99.90
52459;DHT22;38372;52.902;6.024;2023-04-08T14:30:35;12.60;99.90
52459;DHT22;38372;52.902;6.024;2023-04-08T14:33:03;12.50;99.90
52459;DHT22;38372;52.902;6.024;2023-04-08T14:35:32;12.50;99.90
52459;DHT22;38372;52.902;6.024;2023-04-08T14:38:00;12.50;99.90
52459;DHT22;38372;52.902;6.024;2023-04-08T14:40:27;12.50;99.90
52459;DHT22;38372;52.902;6.024;2023-04-08T14:42:55;12.50;99.90
52459;DHT22;38372;52.902;6.024;2023-04-08T14:45:24;12.60;99.90
52459;DHT22;38372;52.902;6.024;2023-04-08T14:47:59;12.50;99.90
52459;DHT22;38372;52.902;6.024;2023-04-08T14:50:25;12.40;99.90
52459;DHT22;38372;52.902;6.024;2023-04-08T14:52:53;12.30;99.90
52459;DHT22;38372;52.902;6.024;2023-04-08T14:55:25;12.20;99.90
52459;DHT22;38372;52.902;6.024;2023-04-08T14:57:58;12.10;99.90
52459;DHT22;38372;52.902;6.024;2023-04-08T15:00:28;12.00;99.90
52459;DHT22;38372;52.902;6.024;2023-04-08T15:02:59;11.90;99.90
52459;DHT22;38372;52.902;6.024;2023-04-08T15:05:29;11.90;99.90
52459;DHT22;38372;52.902;6.024;2023-04-08T15:07:57;11.90;99.90
52459;DHT22;38372;52.902;6.024;2023-04-08T15:10:26;11.90;99.90
52459;DHT22;38372;52.902;6.024;2023-04-08T15:12:58;11.90;99.90
52459;DHT22;38372;52.902;6.024;2023-04-08T15:15:27;11.90;99.90
52459;DHT22;38372;52.902;6.024;2023-04-08T15:17:56;11.90;99.90
52459;DHT22;38372;52.902;6.024;2023-04-08T15:20:29;11.90;99.90
52459;DHT22;38372;52.902;6.024;2023-04-08T15:23:12;12.00;99.90
52459;DHT22;38372;52.902;6.024;2023-04-08T15:25:56;12.00;99.90
52459;DHT22;38372;52.902;6.024;2023-04-08T15:28:39;12.00;99.90
52459;DHT22;38372;52.902;6.024;2023-04-08T15:31:19;12.00;99.90
52459;DHT22;38372;52.902;6.024;2023-04-08T15:33:55;12.00;99.90
52459;DHT22;38372;52.902;6.024;2023-04-08T15:36:29;12.00;99.90
52459;DHT22;38372;52.902;6.024;2023-04-08T15:38:55;11.90;99.90
52459;DHT22;38372;52.902;6.024;2023-04-08T15:41:21;11.90;99.90
52459;DHT22;38372;52.902;6.024;2023-04-08T15:43:47;11.90;99.90
52459;DHT22;38372;52.902;6.024;2023-04-08T15:46:17;11.80;99.90
52459;DHT22;38372;52.902;6.024;2023-04-08T15:48:43;11.80;99.90
52459;DHT22;38372;52.902;6.024;2023-04-08T15:51:09;11.80;99.90
52459;DHT22;38372;52.902;6.024;2023-04-08T15:53:38;11.80;99.90
52459;DHT22;38372;52.902;6.024;2023-04-08T15:56:04;11.80;99.90
52459;DHT22;38372;52.902;6.024;2023-04-08T15:58:30;11.80;99.90
52459;DHT22;38372;52.902;6.024;2023-04-08T16:00:56;11.70;99.90
52459;DHT22;38372;52.902;6.024;2023-04-08T16:03:23;11.70;99.90
52459;DHT22;38372;52.902;6.024;2023-04-08T16:05:49;11.60;99.90
52459;DHT22;38372;52.902;6.024;2023-04-08T16:08:15;11.60;99.90